sensor_id;sensor_type;location;lat;lon;timestamp;temperature;humidity
42421;DHT22;28063;48.140;11.588;2023-07-08T00:00:11;18.90;63.40
42421;DHT22;28063;48.140;11.588;2023-07-08T00:02:37;18.90;63.60
42421;DHT22;28063;48.140;11.588;2023-07-08T00:05:03;18.90;63.80
42421;DHT22;28063;48.140;11.588;2023-07-08T00:07:29;18.90;63.90
42421;DHT22;28063;48.140;11.588;2023-07-08T00:09:54;18.90;63.90
42421;DHT22;28063;48.140;11.588;2023-07-08T00:12:20;18.90;64.00
42421;DHT22;28063;48.140;11.588;2023-07-08T00:14:45;18.90;64.00
42421;DHT22;28063;48.140;11.588;2023-07-08T00:17:13;18.80;64.20
42421;DHT22;28063;48.140;11.588;2023-07-08T00:19:39;18.80;64.10
42421;DHT22;28063;48.140;11.588;2023-07-08T00:22:14;18.80;64.30
42421;DHT22;28063;48.140;11.588;2023-07-08T00:24:42;18.80;64.40
42421;DHT22;28063;48.140;11.588;2023-07-08T00:27:10;18.80;64.60
42421;DHT22;28063;48.140;11.588;2023-07-08T00:29:37;18.80;64.60
42421;DHT22;28063;48.140;11.588;2023-07-08T00:32:13;18.80;64.60
42421;DHT22;28063;48.140;11.588;2023-07-08T00:34:39;18.80;64.80
42421;DHT22;28063;48.140;11.588;2023-07-08T00:37:05;18.70;64.80
42421;DHT22;28063;48.140;11.588;2023-07-08T00:39:34;18.70;65.00
42421;DHT22;28063;48.140;11.588;2023-07-08T00:42:18;18.80;65.10
42421;DHT22;28063;48.140;11.588;2023-07-08T00:44:44;18.80;65.10
42421;DHT22;28063;48.140;11.588;2023-07-08T00:47:12;18.80;65.30
42421;DHT22;28063;48.140;11.588;2023-07-08T00:49:56;18.80;65.20
42421;DHT22;28063;48.140;11.588;2023-07-08T00:52:25;18.80;65.10
42421;DHT22;28063;48.140;11.588;2023-07-08T00:54:54;18.70;65.00
42421;DHT22;28063;48.140;11.588;2023-07-08T00:57:21;18.70;65.20
42421;DHT22;28063;48.140;11.588;2023-07-08T00:59:54;18.70;65.20
42421;DHT22;28063;48.140;11.588;2023-07-08T01:02:22;18.70;65.30
42421;DHT22;28063;48.140;11.588;2023-07-08T01:04:52;18.70;65.40
42421;DHT22;28063;48.140;11.588;2023-07-08T01:07:21;18.70;65.30
42421;DHT22;28063;48.140;11.588;2023-07-08T01:09:50;18.70;65.60
42421;DHT22;28063;48.140;11.588;2023-07-08T01:12:21;18.70;65.80
42421;DHT22;28063;48.140;11.588;2023-07-08T01:14:51;18.70;66.20
42421;DHT22;28063;48.140;11.588;2023-07-08T01:17:20;18.70;66.20
42421;DHT22;28063;48.140;11.588;2023-07-08T01:19:45;18.60;66.10
42421;DHT22;28063;48.140;11.588;2023-07-08T01:22:12;18.60;66.00
42421;DHT22;28063;48.140;11.588;2023-07-08T01:24:41;18.60;66.40
42421;DHT22;28063;48.140;11.588;2023-07-08T01:27:12;18.60;66.70
42421;DHT22;28063;48.140;11.588;2023-07-08T01:29:39;18.60;66.80
42421;DHT22;28063;48.140;11.588;2023-07-08T01:32:05;18.60;67.00
42421;DHT22;28063;48.140;11.588;2023-07-08T01:34:34;18.50;66.90
42421;DHT22;28063;48.140;11.588;2023-07-08T01:37:04;18.60;66.70
42421;DHT22;28063;48.140;11.588;2023-07-08T01:39:31;18.60;67.10
42421;DHT22;28063;48.140;11.588;2023-07-08T01:41:57;18.50;67.20
42421;DHT22;28063;48.140;11.588;2023-07-08T01:44:30;18.60;67.60
42421;DHT22;28063;48.140;11.588;2023-07-08T01:47:00;18.60;67.70
42421;DHT22;28063;48.140;11.588;2023-07-08T01:49:27;18.50;67.80
42421;DHT22;28063;48.140;11.588;2023-07-08T01:51:54;18.50;68.10
42421;DHT22;28063;48.140;11.588;2023-07-08T01:54:20;18.50;68.40
42421;DHT22;28063;48.140;11.588;2023-07-08T01:56:46;18.40;68.70
42421;DHT22;28063;48.140;11.588;2023-07-08T01:59:12;18.40;69.00
42421;DHT22;28063;48.140;11.588;2023-07-08T02:01:37;18.40;69.10
42421;DHT22;28063;48.140;11.588;2023-07-08T02:04:03;18.40;69.40
42421;DHT22;28063;48.140;11.588;2023-07-08T02:06:29;18.40;69.70
42421;DHT22;28063;48.140;11.588;2023-07-08T02:08:54;18.40;70.00
42421;DHT22;28063;48.140;11.588;2023-07-08T02:11:23;18.40;70.10
42421;DHT22;28063;48.140;11.588;2023-07-08T02:13:49;18.40;70.20
42421;DHT22;28063;48.140;11.588;2023-07-08T02:16:15;18.40;70.00
42421;DHT22;28063;48.140;11.588;2023-07-08T02:18:40;18.30;70.00
42421;DHT22;28063;48.140;11.588;2023-07-08T02:21:06;18.30;69.90
42421;DHT22;28063;48.140;11.588;2023-07-08T02:23:32;18.30;69.90
42421;DHT22;28063;48.140;11.588;2023-07-08T02:25:57;18.30;70.10
42421;DHT22;28063;48.140;11.588;2023-07-08T02:28:23;18.30;70.00
42421;DHT22;28063;48.140;11.588;2023-07-08T02:30:48;18.30;69.80
42421;DHT22;28063;48.140;11.588;2023-07-08T02:33:14;18.30;70.10
42421;DHT22;28063;48.140;11.588;2023-07-08T02:35:42;18.20;70.40
42421;DHT22;28063;48.140;11.588;2023-07-08T02:38:08;18.10;71.10
42421;DHT22;28063;48.140;11.588;2023-07-08T02:40:34;18.00;71.80
42421;DHT22;28063;48.140;11.588;2023-07-08T02:43:00;17.90;72.60
42421;DHT22;28063;48.140;11.588;2023-07-08T02:45:25;17.90;73.20
42421;DHT22;28063;48.140;11.588;2023-07-08T02:47:51;17.80;73.80
42421;DHT22;28063;48.140;11.588;2023-07-08T02:50:17;17.80;74.40
42421;DHT22;28063;48.140;11.588;2023-07-08T02:52:44;17.80;74.90
42421;DHT22;28063;48.140;11.588;2023-07-08T02:55:09;17.70;75.20
42421;DHT22;28063;48.140;11.588;2023-07-08T02:57:35;17.70;75.40
42421;DHT22;28063;48.140;11.588;2023-07-08T03:00:01;17.70;75.50
42421;DHT22;28063;48.140;11.588;2023-07-08T03:02:30;17.80;75.40
42421;DHT22;28063;48.140;11.588;2023-07-08T03:04:55;17.70;75.30
42421;DHT22;28063;48.140;11.588;2023-07-08T03:07:24;17.70;75.20
42421;DHT22;28063;48.140;11.588;2023-07-08T03:09:50;17.70;75.40
42421;DHT22;28063;48.140;11.588;2023-07-08T03:12:15;17.70;75.60
42421;DHT22;28063;48.140;11.588;2023-07-08T03:14:41;17.70;75.80
42421;DHT22;28063;48.140;11.588;2023-07-08T03:17:07;17.60;76.10
42421;DHT22;28063;48.140;11.588;2023-07-08T03:19:33;17.60;76.50
42421;DHT22;28063;48.140;11.588;2023-07-08T03:21:58;17.60;76.90
42421;DHT22;28063;48.140;11.588;2023-07-08T03:24:24;17.50;77.20
42421;DHT22;28063;48.140;11.588;2023-07-08T03:26:50;17.50;77.40
42421;DHT22;28063;48.140;11.588;2023-07-08T03:29:20;17.50;77.50
42421;DHT22;28063;48.140;11.588;2023-07-08T03:31:45;17.50;77.50
42421;DHT22;28063;48.140;11.588;2023-07-08T03:34:12;17.50;77.50
42421;DHT22;28063;48.140;11.588;2023-07-08T03:36:47;17.50;77.40
42421;DHT22;28063;48.140;11.588;2023-07-08T03:39:20;17.50;77.40
42421;DHT22;28063;48.140;11.588;2023-07-08T03:41:47;17.50;77.40
42421;DHT22;28063;48.140;11.588;2023-07-08T03:44:13;17.50;77.20
42421;DHT22;28063;48.140;11.588;2023-07-08T03:46:41;17.50;77.10
42421;DHT22;28063;48.140;11.588;2023-07-08T03:49:09;17.50;76.70
42421;DHT22;28063;48.140;11.588;2023-07-08T03:51:37;17.60;76.30
42421;DHT22;28063;48.140;11.588;2023-07-08T03:54:05;17.60;76.00
42421;DHT22;28063;48.140;11.588;2023-07-08T03:56:31;17.60;75.90
42421;DHT22;28063;48.140;11.588;2023-07-08T03:58:57;17.60;75.70
42421;DHT22;28063;48.140;11.588;2023-07-08T04:01:24;17.70;75.50
42421;DHT22;28063;48.140;11.588;2023-07-08T04:03:52;17.70;75.50
42421;DHT22;28063;48.140;11.588;2023-07-08T04:06:18;17.80;75.50
42421;DHT22;28063;48.140;11.588;2023-07-08T04:08:44;17.90;75.40
42421;DHT22;28063;48.140;11.588;2023-07-08T04:11:21;17.90;75.10
42421;DHT22;28063;48.140;11.588;2023-07-08T04:13:47;18.00;74.70
42421;DHT22;28063;48.140;11.588;2023-07-08T04:16:21;18.10;74.60
42421;DHT22;28063;48.140;11.588;2023-07-08T04:18:48;18.10;74.50
42421;DHT22;28063;48.140;11.588;2023-07-08T04:21:17;18.20;74.20
42421;DHT22;28063;48.140;11.588;2023-07-08T04:23:43;18.30;74.40
42421;DHT22;28063;48.140;11.588;2023-07-08T04:26:09;18.30;74.00
42421;DHT22;28063;48.140;11.588;2023-07-08T04:28:35;18.40;73.50
42421;DHT22;28063;48.140;11.588;2023-07-08T04:31:01;18.40;73.10
42421;DHT22;28063;48.140;11.588;2023-07-08T04:33:27;18.40;73.00
42421;DHT22;28063;48.140;11.588;2023-07-08T04:35:52;18.40;73.10
42421;DHT22;28063;48.140;11.588;2023-07-08T04:38:21;18.50;73.30
42421;DHT22;28063;48.140;11.588;2023-07-08T04:40:48;18.50;72.80
42421;DHT22;28063;48.140;11.588;2023-07-08T04:43:14;18.60;72.60
42421;DHT22;28063;48.140;11.588;2023-07-08T04:45:41;18.70;72.50
42421;DHT22;28063;48.140;11.588;2023-07-08T04:48:12;18.70;72.10
42421;DHT22;28063;48.140;11.588;2023-07-08T04:50:42;18.80;72.10
42421;DHT22;28063;48.140;11.588;2023-07-08T04:53:09;18.90;71.90
42421;DHT22;28063;48.140;11.588;2023-07-08T04:55:42;19.00;71.80
42421;DHT22;28063;48.140;11.588;2023-07-08T04:58:09;19.10;71.80
42421;DHT22;28063;48.140;11.588;2023-07-08T05:00:34;19.20;71.60
42421;DHT22;28063;48.140;11.588;2023-07-08T05:03:00;19.30;71.00
42421;DHT22;28063;48.140;11.588;2023-07-08T05:05:26;19.40;70.40
42421;DHT22;28063;48.140;11.588;2023-07-08T05:07:51;19.50;69.80
42421;DHT22;28063;48.140;11.588;2023-07-08T05:10:18;19.60;69.80
42421;DHT22;28063;48.140;11.588;2023-07-08T05:12:44;19.60;69.00
42421;DHT22;28063;48.140;11.588;2023-07-08T05:17:37;19.90;68.30
42421;DHT22;28063;48.140;11.588;2023-07-08T05:20:05;20.00;68.20
42421;DHT22;28063;48.140;11.588;2023-07-08T05:22:33;20.10;68.00
42421;DHT22;28063;48.140;11.588;2023-07-08T05:24:59;20.20;67.70
42421;DHT22;28063;48.140;11.588;2023-07-08T05:27:25;20.40;67.50
42421;DHT22;28063;48.140;11.588;2023-07-08T05:29:51;20.60;66.90
42421;DHT22;28063;48.140;11.588;2023-07-08T05:32:17;20.80;66.20
42421;DHT22;28063;48.140;11.588;2023-07-08T05:34:43;21.00;65.80
42421;DHT22;28063;48.140;11.588;2023-07-08T05:37:10;21.30;65.20
42421;DHT22;28063;48.140;11.588;2023-07-08T05:39:36;21.70;64.40
42421;DHT22;28063;48.140;11.588;2023-07-08T05:42:02;22.20;62.90
42421;DHT22;28063;48.140;11.588;2023-07-08T05:44:28;22.30;61.80
42421;DHT22;28063;48.140;11.588;2023-07-08T05:46:53;22.20;61.90
42421;DHT22;28063;48.140;11.588;2023-07-08T05:49:19;22.20;62.40
42421;DHT22;28063;48.140;11.588;2023-07-08T05:51:45;22.30;62.30
42421;DHT22;28063;48.140;11.588;2023-07-08T05:56:37;24.60;58.90
42421;DHT22;28063;48.140;11.588;2023-07-08T05:59:03;25.90;56.70
42421;DHT22;28063;48.140;11.588;2023-07-08T06:01:29;27.00;53.70
42421;DHT22;28063;48.140;11.588;2023-07-08T06:03:55;27.60;51.30
42421;DHT22;28063;48.140;11.588;2023-07-08T06:06:24;28.10;50.90
42421;DHT22;28063;48.140;11.588;2023-07-08T06:08:49;28.60;49.80
42421;DHT22;28063;48.140;11.588;2023-07-08T06:11:15;28.70;48.70
42421;DHT22;28063;48.140;11.588;2023-07-08T06:13:41;28.50;48.50
42421;DHT22;28063;48.140;11.588;2023-07-08T06:16:07;27.90;48.50
42421;DHT22;28063;48.140;11.588;2023-07-08T06:18:32;27.40;49.20
42421;DHT22;28063;48.140;11.588;2023-07-08T06:20:59;27.50;49.90
42421;DHT22;28063;48.140;11.588;2023-07-08T06:23:25;27.20;49.30
42421;DHT22;28063;48.140;11.588;2023-07-08T06:25:51;26.70;50.30
42421;DHT22;28063;48.140;11.588;2023-07-08T06:28:16;26.60;51.60
42421;DHT22;28063;48.140;11.588;2023-07-08T06:30:43;27.50;51.20
42421;DHT22;28063;48.140;11.588;2023-07-08T06:33:08;28.60;49.70
42421;DHT22;28063;48.140;11.588;2023-07-08T06:50:11;30.20;44.80
42421;DHT22;28063;48.140;11.588;2023-07-08T06:52:37;29.90;45.50
42421;DHT22;28063;48.140;11.588;2023-07-08T06:55:08;29.40;46.20
42421;DHT22;28063;48.140;11.588;2023-07-08T06:57:34;29.10;46.90
42421;DHT22;28063;48.140;11.588;2023-07-08T07:00:00;28.60;47.30
42421;DHT22;28063;48.140;11.588;2023-07-08T07:02:26;27.90;48.20
42421;DHT22;28063;48.140;11.588;2023-07-08T07:04:52;27.30;49.30
42421;DHT22;28063;48.140;11.588;2023-07-08T07:07:18;26.70;50.40
42421;DHT22;28063;48.140;11.588;2023-07-08T07:09:44;26.60;51.60
42421;DHT22;28063;48.140;11.588;2023-07-08T07:12:09;27.40;51.10
42421;DHT22;28063;48.140;11.588;2023-07-08T07:14:35;28.10;49.40
42421;DHT22;28063;48.140;11.588;2023-07-08T07:17:01;28.00;49.00
42421;DHT22;28063;48.140;11.588;2023-07-08T07:19:26;27.60;49.50
42421;DHT22;28063;48.140;11.588;2023-07-08T07:21:52;27.20;50.20
42421;DHT22;28063;48.140;11.588;2023-07-08T07:24:18;27.20;50.40
42421;DHT22;28063;48.140;11.588;2023-07-08T07:26:44;27.10;51.10
42421;DHT22;28063;48.140;11.588;2023-07-08T07:29:10;26.80;50.70
42421;DHT22;28063;48.140;11.588;2023-07-08T07:31:35;26.50;51.10
42421;DHT22;28063;48.140;11.588;2023-07-08T07:34:01;26.10;51.90
42421;DHT22;28063;48.140;11.588;2023-07-08T07:36:28;25.80;52.70
42421;DHT22;28063;48.140;11.588;2023-07-08T07:38:54;25.80;53.70
42421;DHT22;28063;48.140;11.588;2023-07-08T07:41:20;26.00;53.30
42421;DHT22;28063;48.140;11.588;2023-07-08T07:43:46;25.90;52.90
42421;DHT22;28063;48.140;11.588;2023-07-08T07:46:12;25.70;53.60
42421;DHT22;28063;48.140;11.588;2023-07-08T07:48:38;25.80;53.70
42421;DHT22;28063;48.140;11.588;2023-07-08T07:51:05;25.90;53.60
42421;DHT22;28063;48.140;11.588;2023-07-08T07:53:31;26.00;53.50
42421;DHT22;28063;48.140;11.588;2023-07-08T07:56:00;26.00;53.50
42421;DHT22;28063;48.140;11.588;2023-07-08T07:58:26;26.10;53.20
42421;DHT22;28063;48.140;11.588;2023-07-08T08:00:52;26.20;53.30
42421;DHT22;28063;48.140;11.588;2023-07-08T08:03:20;26.30;53.00
42421;DHT22;28063;48.140;11.588;2023-07-08T08:05:46;26.50;52.40
42421;DHT22;28063;48.140;11.588;2023-07-08T08:08:11;26.60;51.90
42421;DHT22;28063;48.140;11.588;2023-07-08T08:10:37;26.50;51.70
42421;DHT22;28063;48.140;11.588;2023-07-08T08:13:03;26.60;51.80
42421;DHT22;28063;48.140;11.588;2023-07-08T08:15:29;26.60;51.40
42421;DHT22;28063;48.140;11.588;2023-07-08T08:17:55;26.50;51.40
42421;DHT22;28063;48.140;11.588;2023-07-08T08:20:24;26.40;51.40
42421;DHT22;28063;48.140;11.588;2023-07-08T08:25:18;26.40;51.20
42421;DHT22;28063;48.140;11.588;2023-07-08T08:27:44;26.30;51.90
42421;DHT22;28063;48.140;11.588;2023-07-08T08:30:11;26.30;52.00
42421;DHT22;28063;48.140;11.588;2023-07-08T08:32:36;26.10;52.60
42421;DHT22;28063;48.140;11.588;2023-07-08T08:35:03;26.00;53.20
42421;DHT22;28063;48.140;11.588;2023-07-08T08:37:28;26.00;53.10
42421;DHT22;28063;48.140;11.588;2023-07-08T08:39:54;26.00;52.80
42421;DHT22;28063;48.140;11.588;2023-07-08T08:42:40;26.00;52.90
42421;DHT22;28063;48.140;11.588;2023-07-08T08:45:11;26.20;52.80
42421;DHT22;28063;48.140;11.588;2023-07-08T08:47:41;26.20;52.80
42421;DHT22;28063;48.140;11.588;2023-07-08T08:52:51;26.30;53.00
42421;DHT22;28063;48.140;11.588;2023-07-08T08:55:17;26.50;52.80
42421;DHT22;28063;48.140;11.588;2023-07-08T08:58:05;26.60;52.50
42421;DHT22;28063;48.140;11.588;2023-07-08T09:00:55;26.50;52.00
42421;DHT22;28063;48.140;11.588;2023-07-08T09:05:59;26.40;52.80
42421;DHT22;28063;48.140;11.588;2023-07-08T09:08:33;26.40;52.20
42421;DHT22;28063;48.140;11.588;2023-07-08T09:11:22;26.60;52.30
42421;DHT22;28063;48.140;11.588;2023-07-08T09:13:51;26.90;52.10
42421;DHT22;28063;48.140;11.588;2023-07-08T09:16:35;27.10;51.20
42421;DHT22;28063;48.140;11.588;2023-07-08T09:19:10;27.00;50.60
42421;DHT22;28063;48.140;11.588;2023-07-08T09:21:40;26.90;50.90
42421;DHT22;28063;48.140;11.588;2023-07-08T09:24:17;26.90;51.30
42421;DHT22;28063;48.140;11.588;2023-07-08T09:26:46;27.00;51.10
42421;DHT22;28063;48.140;11.588;2023-07-08T09:29:12;27.10;51.10
42421;DHT22;28063;48.140;11.588;2023-07-08T09:31:39;27.20;50.60
42421;DHT22;28063;48.140;11.588;2023-07-08T09:34:20;27.10;50.60
42421;DHT22;28063;48.140;11.588;2023-07-08T09:36:48;26.90;51.10
42421;DHT22;28063;48.140;11.588;2023-07-08T09:39:17;26.90;51.40
42421;DHT22;28063;48.140;11.588;2023-07-08T09:41:45;27.10;51.30
42421;DHT22;28063;48.140;11.588;2023-07-08T09:44:28;27.00;51.50
42421;DHT22;28063;48.140;11.588;2023-07-08T09:46:57;26.90;51.30
42421;DHT22;28063;48.140;11.588;2023-07-08T09:49:31;26.80;51.90
42421;DHT22;28063;48.140;11.588;2023-07-08T09:51:58;26.80;52.50
42421;DHT22;28063;48.140;11.588;2023-07-08T09:54:25;27.00;52.00
42421;DHT22;28063;48.140;11.588;2023-07-08T09:56:59;27.30;51.50
42421;DHT22;28063;48.140;11.588;2023-07-08T09:59:36;27.60;51.50
42421;DHT22;28063;48.140;11.588;2023-07-08T10:04:47;27.90;50.60
42421;DHT22;28063;48.140;11.588;2023-07-08T10:07:17;28.00;50.20
42421;DHT22;28063;48.140;11.588;2023-07-08T10:09:42;28.20;49.30
42421;DHT22;28063;48.140;11.588;2023-07-08T10:12:12;28.40;49.40
42421;DHT22;28063;48.140;11.588;2023-07-08T10:14:52;28.50;49.30
42421;DHT22;28063;48.140;11.588;2023-07-08T10:17:20;28.50;48.90
42421;DHT22;28063;48.140;11.588;2023-07-08T10:19:46;28.50;48.40
42421;DHT22;28063;48.140;11.588;2023-07-08T10:22:39;28.50;48.40
42421;DHT22;28063;48.140;11.588;2023-07-08T10:35:54;28.60;48.80
42421;DHT22;28063;48.140;11.588;2023-07-08T10:41:14;28.20;49.10
42421;DHT22;28063;48.140;11.588;2023-07-08T10:44:06;28.00;49.40
42421;DHT22;28063;48.140;11.588;2023-07-08T11:05:46;29.00;48.00
42421;DHT22;28063;48.140;11.588;2023-07-08T11:08:32;29.10;47.20
42421;DHT22;28063;48.140;11.588;2023-07-08T11:11:06;29.40;47.10
42421;DHT22;28063;48.140;11.588;2023-07-08T11:13:36;29.40;46.40
42421;DHT22;28063;48.140;11.588;2023-07-08T11:16:20;29.50;46.70
42421;DHT22;28063;48.140;11.588;2023-07-08T11:19:04;29.50;46.70
42421;DHT22;28063;48.140;11.588;2023-07-08T11:21:41;29.50;46.50
42421;DHT22;28063;48.140;11.588;2023-07-08T11:24:21;29.60;46.10
42421;DHT22;28063;48.140;11.588;2023-07-08T11:27:08;29.60;46.20
42421;DHT22;28063;48.140;11.588;2023-07-08T11:29:47;29.50;45.90
42421;DHT22;28063;48.140;11.588;2023-07-08T11:32:16;29.50;46.20
42421;DHT22;28063;48.140;11.588;2023-07-08T11:34:46;29.60;46.20
42421;DHT22;28063;48.140;11.588;2023-07-08T11:37:13;29.90;45.70
42421;DHT22;28063;48.140;11.588;2023-07-08T11:39:42;30.00;45.20
42421;DHT22;28063;48.140;11.588;2023-07-08T11:44:46;30.20;45.00
42421;DHT22;28063;48.140;11.588;2023-07-08T11:47:41;30.10;44.30
42421;DHT22;28063;48.140;11.588;2023-07-08T11:50:37;29.90;43.90
42421;DHT22;28063;48.140;11.588;2023-07-08T11:53:11;29.90;44.50
42421;DHT22;28063;48.140;11.588;2023-07-08T11:56:00;30.10;44.20
42421;DHT22;28063;48.140;11.588;2023-07-08T11:58:31;30.20;44.00
42421;DHT22;28063;48.140;11.588;2023-07-08T12:03:38;30.40;43.50
42421;DHT22;28063;48.140;11.588;2023-07-08T12:06:45;30.50;43.10
42421;DHT22;28063;48.140;11.588;2023-07-08T12:09:28;30.60;43.00
42421;DHT22;28063;48.140;11.588;2023-07-08T12:12:01;30.70;43.00
42421;DHT22;28063;48.140;11.588;2023-07-08T12:14:28;30.70;43.10
42421;DHT22;28063;48.140;11.588;2023-07-08T12:16:54;30.60;42.60
42421;DHT22;28063;48.140;11.588;2023-07-08T12:19:22;30.30;42.30
42421;DHT22;28063;48.140;11.588;2023-07-08T12:21:51;30.10;43.00
42421;DHT22;28063;48.140;11.588;2023-07-08T12:24:18;30.30;41.90
42421;DHT22;28063;48.140;11.588;2023-07-08T12:26:44;30.40;40.60
42421;DHT22;28063;48.140;11.588;2023-07-08T12:29:13;30.50;40.10
42421;DHT22;28063;48.140;11.588;2023-07-08T12:31:40;30.80;39.70
42421;DHT22;28063;48.140;11.588;2023-07-08T12:34:15;30.80;39.90
42421;DHT22;28063;48.140;11.588;2023-07-08T12:36:43;30.90;39.10
42421;DHT22;28063;48.140;11.588;2023-07-08T12:39:13;31.50;39.10
42421;DHT22;28063;48.140;11.588;2023-07-08T12:41:42;31.70;38.10
42421;DHT22;28063;48.140;11.588;2023-07-08T12:44:19;32.00;38.40
42421;DHT22;28063;48.140;11.588;2023-07-08T12:46:47;32.20;38.30
42421;DHT22;28063;48.140;11.588;2023-07-08T12:49:15;32.00;37.50
42421;DHT22;28063;48.140;11.588;2023-07-08T12:51:44;31.70;38.00
42421;DHT22;28063;48.140;11.588;2023-07-08T12:54:11;31.50;38.30
42421;DHT22;28063;48.140;11.588;2023-07-08T12:56:38;31.40;38.40
42421;DHT22;28063;48.140;11.588;2023-07-08T12:59:06;31.50;39.00
42421;DHT22;28063;48.140;11.588;2023-07-08T13:01:34;31.60;38.80
42421;DHT22;28063;48.140;11.588;2023-07-08T13:04:05;31.40;39.00
42421;DHT22;28063;48.140;11.588;2023-07-08T13:06:33;31.30;39.40
42421;DHT22;28063;48.140;11.588;2023-07-08T13:12:17;31.40;40.60
42421;DHT22;28063;48.140;11.588;2023-07-08T13:14:44;31.70;38.90
42421;DHT22;28063;48.140;11.588;2023-07-08T13:17:14;31.70;39.20
42421;DHT22;28063;48.140;11.588;2023-07-08T13:19:42;31.70;38.90
42421;DHT22;28063;48.140;11.588;2023-07-08T13:22:14;31.40;39.10
42421;DHT22;28063;48.140;11.588;2023-07-08T13:24:41;31.30;39.80
42421;DHT22;28063;48.140;11.588;2023-07-08T13:27:20;31.20;40.00
42421;DHT22;28063;48.140;11.588;2023-07-08T13:29:46;31.40;40.10
42421;DHT22;28063;48.140;11.588;2023-07-08T13:32:12;31.50;40.10
42421;DHT22;28063;48.140;11.588;2023-07-08T13:34:39;31.70;40.00
42421;DHT22;28063;48.140;11.588;2023-07-08T13:37:11;31.90;39.60
42421;DHT22;28063;48.140;11.588;2023-07-08T13:39:39;32.10;39.40
42421;DHT22;28063;48.140;11.588;2023-07-08T13:42:09;32.10;39.00
42421;DHT22;28063;48.140;11.588;2023-07-08T13:44:42;32.10;39.40
42421;DHT22;28063;48.140;11.588;2023-07-08T13:47:38;32.20;38.80
42421;DHT22;28063;48.140;11.588;2023-07-08T13:50:27;32.20;37.90
42421;DHT22;28063;48.140;11.588;2023-07-08T13:52:56;32.30;38.00
42421;DHT22;28063;48.140;11.588;2023-07-08T13:55:22;32.30;37.40
42421;DHT22;28063;48.140;11.588;2023-07-08T13:57:57;32.40;37.70
42421;DHT22;28063;48.140;11.588;2023-07-08T14:00:23;32.50;37.90
42421;DHT22;28063;48.140;11.588;2023-07-08T14:02:50;32.50;38.40
42421;DHT22;28063;48.140;11.588;2023-07-08T14:05:15;32.60;39.00
42421;DHT22;28063;48.140;11.588;2023-07-08T14:07:45;32.60;38.70
42421;DHT22;28063;48.140;11.588;2023-07-08T14:10:12;32.70;38.80
42421;DHT22;28063;48.140;11.588;2023-07-08T14:12:38;32.90;38.80
42421;DHT22;28063;48.140;11.588;2023-07-08T14:15:04;32.80;38.30
42421;DHT22;28063;48.140;11.588;2023-07-08T14:17:31;32.70;38.30
42421;DHT22;28063;48.140;11.588;2023-07-08T14:22:26;32.20;37.30
42421;DHT22;28063;48.140;11.588;2023-07-08T14:24:52;31.90;38.20
42421;DHT22;28063;48.140;11.588;2023-07-08T14:27:24;31.50;38.70
42421;DHT22;28063;48.140;11.588;2023-07-08T14:29:59;31.40;38.80
42421;DHT22;28063;48.140;11.588;2023-07-08T14:32:28;31.20;38.30
42421;DHT22;28063;48.140;11.588;2023-07-08T14:34:59;31.00;39.00
42421;DHT22;28063;48.140;11.588;2023-07-08T14:37:25;30.80;39.70
42421;DHT22;28063;48.140;11.588;2023-07-08T14:39:51;30.60;39.50
42421;DHT22;28063;48.140;11.588;2023-07-08T14:42:19;30.50;39.50
42421;DHT22;28063;48.140;11.588;2023-07-08T14:44:46;30.50;39.40
42421;DHT22;28063;48.140;11.588;2023-07-08T14:47:14;30.40;38.90
42421;DHT22;28063;48.140;11.588;2023-07-08T14:49:41;30.50;39.20
42421;DHT22;28063;48.140;11.588;2023-07-08T14:52:06;30.70;39.30
42421;DHT22;28063;48.140;11.588;2023-07-08T14:54:33;31.00;39.00
42421;DHT22;28063;48.140;11.588;2023-07-08T14:56:58;31.30;38.50
42421;DHT22;28063;48.140;11.588;2023-07-08T14:59:28;31.50;39.20
42421;DHT22;28063;48.140;11.588;2023-07-08T15:01:55;31.40;39.40
42421;DHT22;28063;48.140;11.588;2023-07-08T15:04:21;31.30;39.20
42421;DHT22;28063;48.140;11.588;2023-07-08T15:06:47;31.10;39.40
42421;DHT22;28063;48.140;11.588;2023-07-08T15:09:14;30.90;39.10
42421;DHT22;28063;48.140;11.588;2023-07-08T15:11:42;30.80;39.40
42421;DHT22;28063;48.140;11.588;2023-07-08T15:14:21;30.70;39.20
42421;DHT22;28063;48.140;11.588;2023-07-08T15:16:49;30.60;38.90
42421;DHT22;28063;48.140;11.588;2023-07-08T15:19:15;30.50;38.90
42421;DHT22;28063;48.140;11.588;2023-07-08T15:21:41;30.60;39.20
42421;DHT22;28063;48.140;11.588;2023-07-08T15:24:09;30.90;39.50
42421;DHT22;28063;48.140;11.588;2023-07-08T15:26:41;31.60;39.20
42421;DHT22;28063;48.140;11.588;2023-07-08T15:29:14;31.90;38.80
42421;DHT22;28063;48.140;11.588;2023-07-08T15:31:40;31.90;38.60
42421;DHT22;28063;48.140;11.588;2023-07-08T15:34:23;31.50;39.10
42421;DHT22;28063;48.140;11.588;2023-07-08T15:36:50;31.00;39.20
42421;DHT22;28063;48.140;11.588;2023-07-08T15:39:16;30.70;40.10
42421;DHT22;28063;48.140;11.588;2023-07-08T15:41:42;30.60;40.40
42421;DHT22;28063;48.140;11.588;2023-07-08T15:44:10;30.40;40.00
42421;DHT22;28063;48.140;11.588;2023-07-08T15:46:39;30.50;40.10
42421;DHT22;28063;48.140;11.588;2023-07-08T15:49:18;30.80;40.40
42421;DHT22;28063;48.140;11.588;2023-07-08T15:51:45;31.10;39.60
42421;DHT22;28063;48.140;11.588;2023-07-08T15:54:11;31.50;39.30
42421;DHT22;28063;48.140;11.588;2023-07-08T15:56:38;31.80;39.30
42421;DHT22;28063;48.140;11.588;2023-07-08T15:59:04;31.60;39.10
42421;DHT22;28063;48.140;11.588;2023-07-08T16:01:31;31.40;38.50
42421;DHT22;28063;48.140;11.588;2023-07-08T16:03:57;31.30;38.30
42421;DHT22;28063;48.140;11.588;2023-07-08T16:06:22;31.30;37.90
42421;DHT22;28063;48.140;11.588;2023-07-08T16:08:48;31.20;37.60
42421;DHT22;28063;48.140;11.588;2023-07-08T16:11:27;30.70;37.80
42421;DHT22;28063;48.140;11.588;2023-07-08T16:13:54;30.40;38.50
42421;DHT22;28063;48.140;11.588;2023-07-08T16:16:20;30.10;39.40
42421;DHT22;28063;48.140;11.588;2023-07-08T16:18:47;29.90;40.00
42421;DHT22;28063;48.140;11.588;2023-07-08T16:21:12;29.70;40.30
42421;DHT22;28063;48.140;11.588;2023-07-08T16:23:38;29.60;40.40
42421;DHT22;28063;48.140;11.588;2023-07-08T16:26:04;29.70;40.10
42421;DHT22;28063;48.140;11.588;2023-07-08T16:28:37;29.70;40.60
42421;DHT22;28063;48.140;11.588;2023-07-08T16:31:11;29.50;40.80
42421;DHT22;28063;48.140;11.588;2023-07-08T16:33:37;29.40;41.00
42421;DHT22;28063;48.140;11.588;2023-07-08T16:36:03;29.40;41.00
42421;DHT22;28063;48.140;11.588;2023-07-08T16:38:29;29.40;41.10